Time;durP1;ratioP1;P1;durP2;ratioP2;P2;SDS_P1;SDS_P2;PMS_P1;PMS_P2;Temp;Humidity;BMP_temperature;BMP_pressure;BME280_temperature;BME280_humidity;BME280_pressure;Samples;Min_cycle;Max_cycle;Signal;HPM_P1;HPM_P2
2024/03/31 00:00:50;;;;;;;34.33;11.55;;;;;;;;;;5039989;28;20063;-73
2024/03/31 00:03:16;;;;;;;41.42;14.60;;;;;;;;;;5040522;28;20052;-73
2024/03/31 00:05:41;;;;;;;46.92;13.13;;;;;;;;;;5038186;28;20029;-73
2024/03/31 00:08:06;;;;;;;38.03;11.93;;;;;;;;;;5043916;28;20026;-73
2024/03/31 00:10:32;;;;;;;35.92;9.85;;;;;;;;;;5043257;28;20033;-73
2024/03/31 00:12:57;;;;;;;33.10;9.90;;;;;;;;;;5040034;28;20021;-73
2024/03/31 00:15:22;;;;;;;30.27;10.13;;;;;;;;;;5040261;28;20521;-73
2024/03/31 00:17:50;;;;;;;30.50;9.55;;;;;;;;;;5042076;28;20044;-73
2024/03/31 00:20:15;;;;;;;35.38;8.93;;;;;;;;;;5024040;28;20040;-73
2024/03/31 00:22:40;;;;;;;29.15;7.68;;;;;;;;;;5039457;28;20033;-73
2024/03/31 00:25:05;;;;;;;39.85;9.57;;;;;;;;;;5040769;28;20156;-73
2024/03/31 00:27:30;;;;;;;29.35;7.28;;;;;;;;;;5041873;28;20036;-73
2024/03/31 00:29:56;;;;;;;36.65;9.30;;;;;;;;;;5042119;28;20033;-73
2024/03/31 00:32:22;;;;;;;33.28;8.75;;;;;;;;;;5038121;28;20039;-73
2024/03/31 00:34:47;;;;;;;35.17;10.02;;;;;;;;;;5038804;28;20577;-73
2024/03/31 00:37:12;;;;;;;45.58;12.50;;;;;;;;;;5027418;28;20033;-73
2024/03/31 00:39:38;;;;;;;39.70;11.18;;;;;;;;;;5024689;28;20037;-73
2024/03/31 00:42:03;;;;;;;34.80;10.85;;;;;;;;;;5029351;28;20033;-73
2024/03/31 00:44:28;;;;;;;49.75;12.35;;;;;;;;;;5021624;28;20040;-73
2024/03/31 00:46:53;;;;;;;37.13;11.30;;;;;;;;;;5021619;28;20034;-73
2024/03/31 00:49:19;;;;;;;34.65;10.90;;;;;;;;;;5039550;28;20027;-73
2024/03/31 00:51:44;;;;;;;33.75;10.60;;;;;;;;;;5039402;28;20096;-73
2024/03/31 00:54:09;;;;;;;38.08;9.75;;;;;;;;;;5041289;28;20523;-73
2024/03/31 00:56:34;;;;;;;30.17;7.82;;;;;;;;;;5022464;28;20367;-73
2024/03/31 00:59:00;;;;;;;36.10;8.13;;;;;;;;;;5037923;28;20033;-73
2024/03/31 01:01:25;;;;;;;36.47;8.25;;;;;;;;;;5024112;28;20036;-73
2024/03/31 01:03:50;;;;;;;45.17;8.35;;;;;;;;;;5038044;28;20030;-73
2024/03/31 01:06:19;;;;;;;32.58;8.00;;;;;;;;;;5025938;28;20110;-73
2024/03/31 01:08:46;;;;;;;29.92;7.35;;;;;;;;;;5040883;28;20039;-73
2024/03/31 01:11:12;;;;;;;25.67;6.25;;;;;;;;;;5033659;28;20080;-73
2024/03/31 01:13:37;;;;;;;29.48;6.88;;;;;;;;;;5041404;28;20061;-73
2024/03/31 01:16:05;;;;;;;40.70;7.82;;;;;;;;;;5042429;28;20025;-73
2024/03/31 01:18:32;;;;;;;25.17;6.38;;;;;;;;;;5045640;28;20040;-73
2024/03/31 01:20:57;;;;;;;33.70;7.88;;;;;;;;;;5028625;28;20033;-73
2024/03/31 01:23:25;;;;;;;31.05;7.07;;;;;;;;;;5032161;28;20029;-72
2024/03/31 01:25:50;;;;;;;32.88;6.97;;;;;;;;;;5026243;28;20033;-73
2024/03/31 01:28:16;;;;;;;31.05;7.55;;;;;;;;;;5041368;28;20045;-73
2024/03/31 01:30:41;;;;;;;36.53;6.45;;;;;;;;;;5043031;28;20028;-73
2024/03/31 01:33:06;;;;;;;27.88;6.82;;;;;;;;;;5028288;28;20029;-73
2024/03/31 01:35:31;;;;;;;21.77;6.30;;;;;;;;;;5028266;28;20025;-73
2024/03/31 01:37:57;;;;;;;29.30;7.82;;;;;;;;;;5047443;28;20033;-73
2024/03/31 01:40:22;;;;;;;30.17;7.40;;;;;;;;;;5025250;28;20493;-73
2024/03/31 01:42:47;;;;;;;37.53;7.50;;;;;;;;;;5026545;28;20493;-73
2024/03/31 01:45:13;;;;;;;33.38;8.40;;;;;;;;;;5025383;28;20029;-73
2024/03/31 01:47:39;;;;;;;32.38;7.43;;;;;;;;;;5042194;28;20108;-73
2024/03/31 01:50:04;;;;;;;36.47;9.35;;;;;;;;;;5043447;28;20056;-73
2024/03/31 01:52:30;;;;;;;41.58;8.38;;;;;;;;;;5027117;28;20021;-73
2024/03/31 01:54:55;;;;;;;28.95;7.97;;;;;;;;;;5044692;28;20044;-73
2024/03/31 01:57:20;;;;;;;24.17;6.85;;;;;;;;;;5026435;28;20040;-73
2024/03/31 01:59:45;;;;;;;32.88;7.97;;;;;;;;;;5029206;28;20037;-73
2024/03/31 02:02:11;;;;;;;30.50;7.05;;;;;;;;;;5025672;28;20025;-73
2024/03/31 02:04:36;;;;;;;35.22;7.65;;;;;;;;;;5026160;28;20437;-73
2024/03/31 02:07:01;;;;;;;27.30;7.22;;;;;;;;;;5043413;28;20497;-73
2024/03/31 02:09:26;;;;;;;39.72;8.07;;;;;;;;;;5034425;28;20029;-73
2024/03/31 02:11:52;;;;;;;36.25;8.85;;;;;;;;;;5029753;28;20034;-73
2024/03/31 02:14:17;;;;;;;30.10;7.85;;;;;;;;;;5025498;28;20029;-73
2024/03/31 02:16:42;;;;;;;29.25;9.18;;;;;;;;;;5026301;28;20406;-73
2024/03/31 02:19:07;;;;;;;32.95;7.28;;;;;;;;;;5043544;28;20029;-73
2024/03/31 02:21:33;;;;;;;38.63;8.00;;;;;;;;;;5040861;28;20033;-72
2024/03/31 02:23:58;;;;;;;24.92;7.25;;;;;;;;;;5040667;28;20048;-73
2024/03/31 02:26:23;;;;;;;31.15;8.50;;;;;;;;;;5025789;28;20505;-73
2024/03/31 02:28:49;;;;;;;33.20;7.63;;;;;;;;;;5029158;28;20489;-73
2024/03/31 02:31:14;;;;;;;37.38;10.35;;;;;;;;;;5025757;28;20065;-73
2024/03/31 02:33:39;;;;;;;35.35;7.88;;;;;;;;;;5024195;28;20547;-73
2024/03/31 02:36:11;;;;;;;24.58;6.47;;;;;;;;;;5029852;28;20040;-73
2024/03/31 02:38:37;;;;;;;31.00;7.53;;;;;;;;;;5028372;28;20124;-73
2024/03/31 02:41:02;;;;;;;38.28;7.97;;;;;;;;;;5017366;28;20029;-73
2024/03/31 02:43:28;;;;;;;30.05;7.40;;;;;;;;;;5028933;28;20029;-73
2024/03/31 02:45:53;;;;;;;34.58;7.45;;;;;;;;;;5043535;28;20036;-72
2024/03/31 02:48:18;;;;;;;36.67;7.68;;;;;;;;;;5026411;28;20029;-73
2024/03/31 02:50:47;;;;;;;26.58;7.88;;;;;;;;;;5022188;28;20025;-73
2024/03/31 02:53:13;;;;;;;34.08;7.90;;;;;;;;;;5024831;28;20029;-73
2024/03/31 02:55:38;;;;;;;37.10;8.07;;;;;;;;;;5028999;28;20028;-73
2024/03/31 02:58:03;;;;;;;28.00;8.50;;;;;;;;;;5041261;28;20034;-73
2024/03/31 03:00:29;;;;;;;21.50;6.50;;;;;;;;;;5026083;28;20032;-73
2024/03/31 03:02:54;;;;;;;38.95;7.63;;;;;;;;;;5024682;28;20030;-73
2024/03/31 03:05:19;;;;;;;22.45;6.00;;;;;;;;;;5025593;28;20029;-73
2024/03/31 03:07:44;;;;;;;28.00;6.65;;;;;;;;;;5029530;28;20103;-73
2024/03/31 03:10:09;;;;;;;29.42;6.88;;;;;;;;;;5025318;28;20026;-73
2024/03/31 03:12:35;;;;;;;23.40;6.07;;;;;;;;;;5026539;28;20405;-73
2024/03/31 03:15:00;;;;;;;37.75;8.98;;;;;;;;;;5040771;28;20025;-73
2024/03/31 03:17:25;;;;;;;35.35;8.05;;;;;;;;;;5028862;28;20025;-73
2024/03/31 03:19:51;;;;;;;26.02;6.82;;;;;;;;;;5024887;28;20456;-73
2024/03/31 03:22:16;;;;;;;25.02;6.55;;;;;;;;;;5027983;28;20052;-73
2024/03/31 03:24:41;;;;;;;24.40;6.47;;;;;;;;;;5040115;28;20059;-73
2024/03/31 03:27:07;;;;;;;30.83;8.25;;;;;;;;;;5023707;28;20036;-73
2024/03/31 03:29:32;;;;;;;35.65;7.32;;;;;;;;;;5024670;28;20044;-73
2024/03/31 03:31:58;;;;;;;35.97;8.95;;;;;;;;;;5029543;28;20024;-73
2024/03/31 03:34:24;;;;;;;33.35;7.70;;;;;;;;;;5032440;28;20405;-73
2024/03/31 03:36:52;;;;;;;35.30;7.13;;;;;;;;;;5030595;28;20041;-73
2024/03/31 03:39:18;;;;;;;33.97;7.80;;;;;;;;;;5018175;28;20425;-73
2024/03/31 03:41:44;;;;;;;32.13;7.20;;;;;;;;;;5024504;28;20029;-73
2024/03/31 03:44:09;;;;;;;31.45;6.70;;;;;;;;;;5043667;28;20481;-73
2024/03/31 03:46:36;;;;;;;29.38;6.25;;;;;;;;;;5021070;28;20116;-73
2024/03/31 03:49:01;;;;;;;32.65;7.65;;;;;;;;;;5022601;28;20156;-73
2024/03/31 03:51:26;;;;;;;32.45;6.90;;;;;;;;;;5029535;28;20139;-73
2024/03/31 03:53:51;;;;;;;37.30;8.10;;;;;;;;;;5041818;28;20045;-73
2024/03/31 03:56:17;;;;;;;42.67;9.75;;;;;;;;;;5029999;28;20036;-73
2024/03/31 03:58:42;;;;;;;31.10;7.18;;;;;;;;;;5022839;28;20037;-73
2024/03/31 04:01:08;;;;;;;40.55;9.45;;;;;;;;;;5024143;28;20033;-73
2024/03/31 04:03:33;;;;;;;40.58;8.25;;;;;;;;;;5030097;28;20036;-73
2024/03/31 04:05:58;;;;;;;38.03;8.10;;;;;;;;;;5026132;28;20184;-73
2024/03/31 04:08:24;;;;;;;42.60;9.05;;;;;;;;;;5042613;28;20031;-73
2024/03/31 04:10:49;;;;;;;59.28;10.23;;;;;;;;;;5039079;28;20038;-73
2024/03/31 04:13:14;;;;;;;47.20;10.98;;;;;;;;;;5044938;28;20036;-73
2024/03/31 04:15:40;;;;;;;39.45;9.15;;;;;;;;;;5024030;28;20056;-73
2024/03/31 04:18:06;;;;;;;42.50;9.20;;;;;;;;;;5021498;28;20125;-73
2024/03/31 04:20:39;;;;;;;36.13;8.10;;;;;;;;;;5026548;28;20136;-73
2024/03/31 04:23:04;;;;;;;41.72;7.88;;;;;;;;;;5040282;28;20037;-73
2024/03/31 04:25:29;;;;;;;45.42;9.02;;;;;;;;;;5026263;28;20017;-73
2024/03/31 04:27:54;;;;;;;38.13;8.68;;;;;;;;;;5020904;28;20087;-73
2024/03/31 04:30:20;;;;;;;44.15;9.13;;;;;;;;;;5024012;28;20083;-73
2024/03/31 04:32:45;;;;;;;45.65;10.23;;;;;;;;;;5039495;28;20036;-73
2024/03/31 04:35:10;;;;;;;43.45;8.88;;;;;;;;;;5026755;28;20029;-73
2024/03/31 04:37:36;;;;;;;38.22;9.23;;;;;;;;;;5039971;28;20918;-73
2024/03/31 04:40:02;;;;;;;44.50;8.18;;;;;;;;;;5025199;28;20045;-73
2024/03/31 04:42:27;;;;;;;31.35;8.60;;;;;;;;;;5024609;28;20025;-73
2024/03/31 04:44:53;;;;;;;40.50;10.23;;;;;;;;;;5031561;28;20509;-73
2024/03/31 04:47:18;;;;;;;40.28;8.77;;;;;;;;;;5046392;28;20477;-73
2024/03/31 04:49:45;;;;;;;46.30;9.40;;;;;;;;;;5028514;28;20030;-73
2024/03/31 04:52:10;;;;;;;42.95;8.98;;;;;;;;;;5027271;28;20033;-73
2024/03/31 04:54:38;;;;;;;52.38;11.20;;;;;;;;;;5024926;28;20025;-73
2024/03/31 04:57:04;;;;;;;36.28;9.50;;;;;;;;;;5027466;28;20367;-73
2024/03/31 04:59:29;;;;;;;65.05;11.05;;;;;;;;;;5029735;28;20025;-73
2024/03/31 05:01:54;;;;;;;43.75;9.75;;;;;;;;;;5041678;28;20025;-73
2024/03/31 05:04:20;;;;;;;51.17;11.48;;;;;;;;;;5030664;28;20505;-73
2024/03/31 05:06:46;;;;;;;42.40;9.90;;;;;;;;;;5025665;28;20032;-73
2024/03/31 05:09:12;;;;;;;46.55;10.02;;;;;;;;;;5028701;28;20052;-73
2024/03/31 05:11:37;;;;;;;39.90;10.40;;;;;;;;;;5027285;28;20515;-73
2024/03/31 05:14:03;;;;;;;41.45;10.77;;;;;;;;;;5029867;28;20078;-73
2024/03/31 05:16:31;;;;;;;42.85;11.27;;;;;;;;;;5030735;28;20033;-73
2024/03/31 05:18:56;;;;;;;42.95;10.35;;;;;;;;;;5027708;28;20387;-73
2024/03/31 05:21:22;;;;;;;51.13;10.70;;;;;;;;;;5028607;28;20396;-73
2024/03/31 05:23:47;;;;;;;48.53;10.38;;;;;;;;;;5029681;28;20025;-73
2024/03/31 05:26:23;;;;;;;40.40;8.80;;;;;;;;;;5027680;28;20080;-73
2024/03/31 05:28:49;;;;;;;41.40;8.80;;;;;;;;;;5029380;28;20025;-73
2024/03/31 05:31:15;;;;;;;39.92;9.63;;;;;;;;;;5026407;28;20028;-73
2024/03/31 05:34:03;;;;;;;33.70;10.30;;;;;;;;;;5033067;28;20440;-73
2024/03/31 05:36:30;;;;;;;41.78;11.02;;;;;;;;;;5029481;28;20060;-73
2024/03/31 05:38:56;;;;;;;43.92;9.82;;;;;;;;;;5015733;28;20116;-73
2024/03/31 05:41:22;;;;;;;44.42;10.20;;;;;;;;;;5026040;28;20545;-73
2024/03/31 05:43:47;;;;;;;50.42;11.00;;;;;;;;;;5028118;28;20025;-73
2024/03/31 05:46:12;;;;;;;42.42;10.85;;;;;;;;;;5031047;28;20025;-73
2024/03/31 05:48:38;;;;;;;46.92;11.68;;;;;;;;;;5025743;28;20048;-73
2024/03/31 05:51:03;;;;;;;36.53;9.95;;;;;;;;;;5028060;28;20029;-73
2024/03/31 05:53:30;;;;;;;41.58;9.93;;;;;;;;;;5027095;28;20402;-73
2024/03/31 05:55:56;;;;;;;50.08;10.20;;;;;;;;;;5028860;28;20041;-73
2024/03/31 05:58:21;;;;;;;34.33;9.18;;;;;;;;;;5030198;28;20107;-73
2024/03/31 06:00:47;;;;;;;35.97;10.20;;;;;;;;;;5040725;28;20041;-73
2024/03/31 06:03:13;;;;;;;48.13;12.63;;;;;;;;;;5031629;28;20073;-73
2024/03/31 06:05:38;;;;;;;40.53;10.35;;;;;;;;;;5022880;28;20087;-74
2024/03/31 06:08:04;;;;;;;42.28;11.43;;;;;;;;;;5027076;28;20116;-73
2024/03/31 06:10:29;;;;;;;51.67;12.90;;;;;;;;;;5031518;28;20044;-73
2024/03/31 06:12:54;;;;;;;48.25;10.70;;;;;;;;;;5026833;28;20033;-73
2024/03/31 06:15:20;;;;;;;42.47;10.60;;;;;;;;;;5028283;28;20025;-73
2024/03/31 06:17:45;;;;;;;43.28;10.80;;;;;;;;;;5025302;28;20507;-73
2024/03/31 06:20:12;;;;;;;49.40;11.50;;;;;;;;;;5024583;28;20094;-72
2024/03/31 06:22:39;;;;;;;48.55;11.75;;;;;;;;;;5027917;28;20112;-73
2024/03/31 06:25:04;;;;;;;47.17;11.70;;;;;;;;;;5028310;28;20033;-73
2024/03/31 06:27:30;;;;;;;59.33;14.55;;;;;;;;;;5028469;28;20033;-73
2024/03/31 06:29:55;;;;;;;50.85;12.27;;;;;;;;;;5025596;28;20025;-73
2024/03/31 06:32:20;;;;;;;43.78;11.10;;;;;;;;;;5028956;28;20035;-73
2024/03/31 06:34:46;;;;;;;42.70;11.45;;;;;;;;;;5028111;28;20522;-73
2024/03/31 06:37:12;;;;;;;46.63;11.48;;;;;;;;;;5029034;28;20072;-73
2024/03/31 06:39:38;;;;;;;57.20;14.27;;;;;;;;;;5028765;28;20029;-73
2024/03/31 06:42:03;;;;;;;61.38;13.65;;;;;;;;;;5044180;28;20040;-73
2024/03/31 06:44:28;;;;;;;36.92;11.80;;;;;;;;;;5030180;28;20104;-73
2024/03/31 06:46:54;;;;;;;45.42;12.00;;;;;;;;;;5030109;28;20460;-73
2024/03/31 06:49:19;;;;;;;55.28;13.00;;;;;;;;;;5027661;28;20030;-73
2024/03/31 06:51:47;;;;;;;44.17;12.27;;;;;;;;;;5030318;28;20050;-73
2024/03/31 06:54:13;;;;;;;54.30;12.05;;;;;;;;;;5028086;28;20067;-73
2024/03/31 06:56:38;;;;;;;54.90;13.13;;;;;;;;;;5025903;28;20032;-73
2024/03/31 06:59:04;;;;;;;57.97;14.85;;;;;;;;;;5025619;28;20026;-73
2024/03/31 07:01:29;;;;;;;46.38;13.10;;;;;;;;;;5021931;28;20032;-73
2024/03/31 07:03:54;;;;;;;51.97;12.85;;;;;;;;;;5026563;28;20068;-73
2024/03/31 07:06:20;;;;;;;49.63;14.15;;;;;;;;;;5027331;28;20056;-73
2024/03/31 07:08:47;;;;;;;41.25;13.93;;;;;;;;;;5025269;28;20428;-73
2024/03/31 07:11:13;;;;;;;53.92;14.45;;;;;;;;;;5030468;28;20032;-73
2024/03/31 07:13:38;;;;;;;44.70;13.95;;;;;;;;;;5029545;28;20033;-73
2024/03/31 07:16:03;;;;;;;62.83;15.25;;;;;;;;;;5033902;28;20036;-73
2024/03/31 07:18:29;;;;;;;40.03;12.32;;;;;;;;;;5026684;28;20516;-74
2024/03/31 07:20:54;;;;;;;52.83;13.82;;;;;;;;;;5027381;28;20026;-74
2024/03/31 07:23:19;;;;;;;52.90;13.27;;;;;;;;;;5029450;28;20036;-74
2024/03/31 07:25:45;;;;;;;46.75;13.80;;;;;;;;;;5027605;28;20410;-74
2024/03/31 07:28:10;;;;;;;67.20;15.63;;;;;;;;;;5032545;28;20060;-74
2024/03/31 07:30:40;;;;;;;60.30;15.65;;;;;;;;;;5024690;28;20106;-74
2024/03/31 07:33:05;;;;;;;56.88;14.98;;;;;;;;;;5025496;28;20406;-73
2024/03/31 07:35:30;;;;;;;56.58;15.98;;;;;;;;;;5044821;28;20060;-73
2024/03/31 07:37:55;;;;;;;55.83;14.32;;;;;;;;;;5042684;28;20039;-73
2024/03/31 07:40:21;;;;;;;56.60;16.58;;;;;;;;;;5042059;28;20440;-73
2024/03/31 07:42:46;;;;;;;49.63;16.65;;;;;;;;;;5046510;28;20078;-73
2024/03/31 07:45:11;;;;;;;50.88;15.48;;;;;;;;;;5039363;28;20033;-74
2024/03/31 07:47:36;;;;;;;63.47;16.20;;;;;;;;;;5041802;28;20043;-74
2024/03/31 07:50:02;;;;;;;52.70;15.18;;;;;;;;;;5039484;28;20033;-74
2024/03/31 07:52:27;;;;;;;55.67;16.20;;;;;;;;;;5045413;28;20151;-73
2024/03/31 07:54:52;;;;;;;52.40;16.58;;;;;;;;;;5039358;28;20036;-74
2024/03/31 07:57:17;;;;;;;48.75;15.57;;;;;;;;;;5038561;28;20037;-73
2024/03/31 07:59:45;;;;;;;52.63;16.30;;;;;;;;;;5042777;28;20029;-74
2024/03/31 08:02:10;;;;;;;47.63;14.88;;;;;;;;;;5037835;28;20517;-73
2024/03/31 08:04:35;;;;;;;59.53;16.73;;;;;;;;;;5040803;28;20053;-73
2024/03/31 08:07:00;;;;;;;55.47;15.50;;;;;;;;;;5040805;28;20053;-74
2024/03/31 08:09:26;;;;;;;48.45;15.82;;;;;;;;;;5040906;28;20035;-73
2024/03/31 08:11:51;;;;;;;72.18;18.08;;;;;;;;;;5038986;28;20106;-73
2024/03/31 08:14:16;;;;;;;51.88;16.05;;;;;;;;;;5038792;28;20120;-73
2024/03/31 08:16:41;;;;;;;50.70;16.25;;;;;;;;;;5040032;28;20032;-73
2024/03/31 08:19:06;;;;;;;55.45;18.05;;;;;;;;;;5040111;28;20033;-73
2024/03/31 08:21:31;;;;;;;59.47;18.67;;;;;;;;;;5045268;28;20037;-74
2024/03/31 08:23:57;;;;;;;66.00;18.30;;;;;;;;;;5039764;28;20030;-74
2024/03/31 08:26:22;;;;;;;40.85;15.07;;;;;;;;;;5040239;28;20037;-73
2024/03/31 08:28:47;;;;;;;57.83;16.92;;;;;;;;;;5039963;28;20029;-74
2024/03/31 08:31:13;;;;;;;51.22;16.95;;;;;;;;;;5040267;28;20112;-74
2024/03/31 08:33:38;;;;;;;43.88;15.05;;;;;;;;;;5042155;28;20025;-74
2024/03/31 08:36:03;;;;;;;52.42;17.42;;;;;;;;;;5041654;28;20045;-74
2024/03/31 08:38:29;;;;;;;55.03;16.92;;;;;;;;;;5038420;28;20037;-74
2024/03/31 08:40:55;;;;;;;53.25;16.15;;;;;;;;;;5039596;28;20029;-73
2024/03/31 08:43:26;;;;;;;51.78;17.55;;;;;;;;;;5041720;28;20033;-74
2024/03/31 08:45:51;;;;;;;51.05;16.08;;;;;;;;;;5038456;28;20033;-74
2024/03/31 08:48:19;;;;;;;53.88;16.60;;;;;;;;;;5043073;28;20035;-73
2024/03/31 08:50:45;;;;;;;54.00;15.68;;;;;;;;;;5038109;28;20034;-73
2024/03/31 08:53:11;;;;;;;55.10;17.75;;;;;;;;;;5038015;28;20398;-74
2024/03/31 08:55:36;;;;;;;55.42;19.15;;;;;;;;;;5041779;28;20044;-74
2024/03/31 08:58:01;;;;;;;49.72;16.30;;;;;;;;;;5037990;28;20033;-74
2024/03/31 09:00:26;;;;;;;52.35;16.67;;;;;;;;;;5041490;28;20037;-73
2024/03/31 09:02:52;;;;;;;49.10;17.13;;;;;;;;;;5040896;28;20038;-73
2024/03/31 09:05:17;;;;;;;60.90;18.20;;;;;;;;;;5041791;28;20029;-74
2024/03/31 09:07:42;;;;;;;55.63;17.13;;;;;;;;;;5044136;28;20095;-74
2024/03/31 09:10:08;;;;;;;51.08;17.38;;;;;;;;;;5038394;28;20044;-74
2024/03/31 09:12:33;;;;;;;66.93;18.70;;;;;;;;;;5042999;28;20033;-74
2024/03/31 09:15:00;;;;;;;59.95;18.50;;;;;;;;;;5038382;28;20061;-74
2024/03/31 09:17:25;;;;;;;45.55;14.98;;;;;;;;;;5040767;28;20048;-74
2024/03/31 09:19:51;;;;;;;53.97;16.73;;;;;;;;;;5037801;28;20037;-74
2024/03/31 09:22:16;;;;;;;52.78;16.25;;;;;;;;;;5039562;28;20068;-74
2024/03/31 09:24:44;;;;;;;53.67;16.48;;;;;;;;;;5042686;28;20033;-74
2024/03/31 09:27:10;;;;;;;43.85;16.08;;;;;;;;;;5038158;28;20109;-74
2024/03/31 09:29:39;;;;;;;61.03;17.88;;;;;;;;;;5043623;28;20117;-74
2024/03/31 09:32:04;;;;;;;51.85;16.23;;;;;;;;;;5049824;28;20060;-74
2024/03/31 09:34:30;;;;;;;62.30;18.50;;;;;;;;;;5041141;28;20072;-74
2024/03/31 09:36:55;;;;;;;57.57;17.20;;;;;;;;;;5043911;28;20028;-73
2024/03/31 09:39:20;;;;;;;53.20;17.02;;;;;;;;;;5045145;28;20279;-73
2024/03/31 09:41:49;;;;;;;50.28;16.85;;;;;;;;;;5044660;28;20071;-73
2024/03/31 09:44:14;;;;;;;48.15;16.85;;;;;;;;;;5046623;28;20439;-74
2024/03/31 09:46:40;;;;;;;49.72;17.00;;;;;;;;;;5042344;28;20037;-74
2024/03/31 09:49:07;;;;;;;51.13;16.60;;;;;;;;;;5041021;28;20030;-74
2024/03/31 09:51:39;;;;;;;47.42;16.02;;;;;;;;;;5045902;28;20402;-74
2024/03/31 09:54:07;;;;;;;46.47;16.98;;;;;;;;;;5043503;28;20159;-74
2024/03/31 09:56:39;;;;;;;40.72;14.35;;;;;;;;;;5045857;28;20041;-73
2024/03/31 09:59:05;;;;;;;45.35;15.15;;;;;;;;;;5042596;28;20038;-73
2024/03/31 10:01:31;;;;;;;43.67;15.68;;;;;;;;;;5042549;28;20596;-74
2024/03/31 10:03:58;;;;;;;50.97;16.88;;;;;;;;;;5042165;28;20078;-74
2024/03/31 10:06:24;;;;;;;69.97;18.45;;;;;;;;;;5044622;28;20079;-74
2024/03/31 10:08:50;;;;;;;56.42;17.30;;;;;;;;;;5043849;28;20781;-73
2024/03/31 10:11:16;;;;;;;55.70;17.38;;;;;;;;;;5045773;28;20028;-74
2024/03/31 10:13:42;;;;;;;47.80;14.73;;;;;;;;;;5044049;28;20048;-74
2024/03/31 10:16:08;;;;;;;44.70;14.93;;;;;;;;;;5040230;28;20022;-74
2024/03/31 10:18:33;;;;;;;56.97;15.27;;;;;;;;;;5043786;28;20048;-74
2024/03/31 10:20:59;;;;;;;49.72;15.02;;;;;;;;;;5040643;28;20029;-74
2024/03/31 10:23:25;;;;;;;48.90;14.55;;;;;;;;;;5047584;28;20115;-74
2024/03/31 10:25:52;;;;;;;50.30;14.02;;;;;;;;;;5040321;28;20025;-74
2024/03/31 10:28:17;;;;;;;47.03;14.70;;;;;;;;;;5043481;28;20429;-74
2024/03/31 10:30:42;;;;;;;44.15;15.10;;;;;;;;;;5040104;28;20041;-74
2024/03/31 10:33:08;;;;;;;62.60;14.85;;;;;;;;;;5040814;28;20029;-74
2024/03/31 10:35:34;;;;;;;55.17;15.80;;;;;;;;;;5043486;28;20080;-74
2024/03/31 10:37:59;;;;;;;41.90;14.02;;;;;;;;;;5043628;28;20061;-74
2024/03/31 10:40:26;;;;;;;53.47;14.32;;;;;;;;;;5043414;28;20028;-74
2024/03/31 10:42:53;;;;;;;54.17;16.13;;;;;;;;;;5041617;28;20390;-74
2024/03/31 10:45:18;;;;;;;47.53;14.98;;;;;;;;;;5040800;28;20048;-73
2024/03/31 10:47:43;;;;;;;50.20;15.38;;;;;;;;;;5042602;28;20486;-74
2024/03/31 10:50:09;;;;;;;45.78;16.15;;;;;;;;;;5040888;28;20025;-74
2024/03/31 10:52:37;;;;;;;39.67;13.18;;;;;;;;;;5045294;28;20075;-74
2024/03/31 10:55:05;;;;;;;43.92;16.75;;;;;;;;;;5041120;28;20038;-74
2024/03/31 10:57:35;;;;;;;44.10;16.13;;;;;;;;;;5039604;28;20164;-74
2024/03/31 11:00:01;;;;;;;49.53;15.77;;;;;;;;;;5040428;28;20045;-74
2024/03/31 11:02:27;;;;;;;53.10;14.30;;;;;;;;;;5046368;28;20056;-74
2024/03/31 11:05:05;;;;;;;45.47;13.73;;;;;;;;;;5040638;28;20025;-74
2024/03/31 11:07:31;;;;;;;50.83;14.38;;;;;;;;;;5043298;28;20025;-74
2024/03/31 11:09:57;;;;;;;46.88;13.75;;;;;;;;;;5040518;28;20048;-74
2024/03/31 11:12:23;;;;;;;42.47;13.40;;;;;;;;;;5039685;28;20104;-74
2024/03/31 11:14:50;;;;;;;41.25;14.80;;;;;;;;;;5041496;28;20061;-74
2024/03/31 11:17:16;;;;;;;57.28;17.17;;;;;;;;;;5041312;28;20033;-74
2024/03/31 11:19:41;;;;;;;45.65;12.95;;;;;;;;;;5041197;28;20039;-74
2024/03/31 11:22:07;;;;;;;46.60;15.13;;;;;;;;;;5042676;28;20124;-74
2024/03/31 11:24:33;;;;;;;33.30;12.60;;;;;;;;;;5040815;28;20292;-74
2024/03/31 11:26:59;;;;;;;32.92;11.65;;;;;;;;;;5038953;28;20489;-74
2024/03/31 11:29:24;;;;;;;38.53;12.88;;;;;;;;;;5047458;28;20036;-74
2024/03/31 11:31:49;;;;;;;37.90;12.02;;;;;;;;;;5041676;28;20086;-74
2024/03/31 11:34:15;;;;;;;42.17;12.20;;;;;;;;;;5042551;28;20406;-74
2024/03/31 11:36:43;;;;;;;37.67;11.07;;;;;;;;;;5040466;28;20048;-74
2024/03/31 11:39:09;;;;;;;46.33;13.88;;;;;;;;;;5039606;28;20768;-74
2024/03/31 11:41:34;;;;;;;45.95;14.57;;;;;;;;;;5041867;28;20037;-74
2024/03/31 11:44:00;;;;;;;44.45;11.85;;;;;;;;;;5043534;28;20029;-74
2024/03/31 11:46:25;;;;;;;40.85;11.80;;;;;;;;;;5044395;28;20044;-74
2024/03/31 11:48:50;;;;;;;46.75;11.95;;;;;;;;;;5040402;28;20056;-74
2024/03/31 11:51:15;;;;;;;31.30;10.88;;;;;;;;;;5041371;28;20033;-74
2024/03/31 11:53:41;;;;;;;33.90;10.75;;;;;;;;;;5039581;28;20112;-74
2024/03/31 11:56:06;;;;;;;42.15;11.88;;;;;;;;;;5041155;28;20613;-74
2024/03/31 11:58:35;;;;;;;34.75;11.00;;;;;;;;;;5042524;28;20029;-74
2024/03/31 12:01:00;;;;;;;39.58;11.45;;;;;;;;;;5038605;28;20116;-74
2024/03/31 12:03:25;;;;;;;40.95;11.38;;;;;;;;;;5043769;28;20113;-74
2024/03/31 12:05:51;;;;;;;42.67;11.25;;;;;;;;;;5038828;28;20053;-74
2024/03/31 12:08:19;;;;;;;46.63;11.45;;;;;;;;;;5038900;28;20034;-74
2024/03/31 12:10:47;;;;;;;34.42;10.48;;;;;;;;;;5041558;28;20036;-74
2024/03/31 12:13:13;;;;;;;35.53;10.38;;;;;;;;;;5044981;28;20026;-74
2024/03/31 12:15:39;;;;;;;45.35;11.55;;;;;;;;;;5042339;28;20057;-74
2024/03/31 12:18:04;;;;;;;38.72;10.00;;;;;;;;;;5042051;28;20069;-74
2024/03/31 12:20:29;;;;;;;45.85;11.88;;;;;;;;;;5040572;28;20029;-74
2024/03/31 12:22:55;;;;;;;45.80;11.82;;;;;;;;;;5042092;28;20474;-74
2024/03/31 12:25:20;;;;;;;48.83;12.15;;;;;;;;;;5040047;28;20040;-74
2024/03/31 12:27:46;;;;;;;53.17;12.35;;;;;;;;;;5042007;28;20112;-74
2024/03/31 12:30:11;;;;;;;42.42;11.95;;;;;;;;;;5040199;28;20142;-74
2024/03/31 12:32:37;;;;;;;46.88;13.70;;;;;;;;;;5040846;28;20060;-74
2024/03/31 12:35:04;;;;;;;46.45;12.68;;;;;;;;;;5038310;28;20037;-74
2024/03/31 12:37:29;;;;;;;48.88;12.15;;;;;;;;;;5044284;28;20037;-74
2024/03/31 12:39:54;;;;;;;37.97;12.15;;;;;;;;;;5041202;28;20104;-74
2024/03/31 12:42:22;;;;;;;38.45;11.70;;;;;;;;;;5043702;28;20029;-74
2024/03/31 12:44:54;;;;;;;41.45;12.82;;;;;;;;;;5038942;28;20033;-74
2024/03/31 12:47:19;;;;;;;42.08;10.27;;;;;;;;;;5041351;28;20028;-74
2024/03/31 12:49:45;;;;;;;43.33;11.13;;;;;;;;;;5038081;28;20017;-74
2024/03/31 12:52:10;;;;;;;37.67;10.05;;;;;;;;;;5041946;28;20298;-74
2024/03/31 12:54:36;;;;;;;40.67;11.87;;;;;;;;;;5041505;28;20033;-74
2024/03/31 12:57:01;;;;;;;45.00;11.27;;;;;;;;;;5038183;28;20283;-74
2024/03/31 12:59:26;;;;;;;36.42;10.63;;;;;;;;;;5041498;28;20107;-74
2024/03/31 13:01:52;;;;;;;39.33;11.15;;;;;;;;;;5039766;28;20026;-74
2024/03/31 13:04:17;;;;;;;37.28;11.20;;;;;;;;;;5045547;28;20030;-74
2024/03/31 13:06:42;;;;;;;39.85;12.07;;;;;;;;;;5048842;28;20025;-74
2024/03/31 13:09:09;;;;;;;37.78;11.65;;;;;;;;;;5045109;28;20498;-74
2024/03/31 13:11:34;;;;;;;48.67;12.10;;;;;;;;;;5031844;28;20041;-74
2024/03/31 13:14:00;;;;;;;39.75;12.20;;;;;;;;;;5043084;28;20132;-74
2024/03/31 13:16:25;;;;;;;43.92;12.18;;;;;;;;;;5041524;28;20049;-74
2024/03/31 13:18:50;;;;;;;36.63;11.10;;;;;;;;;;5044205;28;20554;-74
2024/03/31 13:21:15;;;;;;;40.25;10.15;;;;;;;;;;5042513;28;20034;-74
2024/03/31 13:23:41;;;;;;;49.38;11.85;;;;;;;;;;5045895;28;20021;-74
2024/03/31 13:26:06;;;;;;;41.90;12.18;;;;;;;;;;5046706;28;20596;-74
2024/03/31 13:28:31;;;;;;;48.80;11.50;;;;;;;;;;5044046;28;20064;-74
2024/03/31 13:30:57;;;;;;;45.23;11.43;;;;;;;;;;5041192;28;20358;-74
2024/03/31 13:33:22;;;;;;;52.08;12.77;;;;;;;;;;5045239;28;20296;-74
2024/03/31 13:35:47;;;;;;;45.67;12.07;;;;;;;;;;5043545;28;20087;-74
2024/03/31 13:38:12;;;;;;;44.23;10.43;;;;;;;;;;5044579;28;20033;-74
2024/03/31 13:40:37;;;;;;;43.58;10.48;;;;;;;;;;5043376;28;20292;-74
2024/03/31 13:43:03;;;;;;;42.72;10.50;;;;;;;;;;5046194;28;20029;-74
2024/03/31 13:45:29;;;;;;;42.35;10.70;;;;;;;;;;5040934;28;20144;-74
2024/03/31 13:47:54;;;;;;;46.35;10.70;;;;;;;;;;5042913;28;20443;-74
2024/03/31 13:50:20;;;;;;;49.80;10.80;;;;;;;;;;5046408;28;20087;-74
2024/03/31 13:52:45;;;;;;;50.77;11.50;;;;;;;;;;5044741;28;20583;-74
2024/03/31 13:55:10;;;;;;;48.37;12.63;;;;;;;;;;5042853;28;20272;-74
2024/03/31 13:57:35;;;;;;;38.17;11.83;;;;;;;;;;5042600;28;20279;-74
2024/03/31 14:00:03;;;;;;;32.28;11.65;;;;;;;;;;5040599;28;20333;-74
2024/03/31 14:02:37;;;;;;;42.72;12.27;;;;;;;;;;5046508;28;20048;-74
2024/03/31 14:05:03;;;;;;;40.07;10.87;;;;;;;;;;5042764;28;20029;-74
2024/03/31 14:07:28;;;;;;;42.90;11.82;;;;;;;;;;5046326;28;20282;-74
2024/03/31 14:09:53;;;;;;;43.42;12.43;;;;;;;;;;5043326;28;20096;-74
2024/03/31 14:12:19;;;;;;;42.25;12.02;;;;;;;;;;5042648;28;20024;-74